sensor_id;sensor_type;location;lat;lon;timestamp;P1;durP1;ratioP1;P2;durP2;ratioP2
53261;SDS011;39658;51.090;-1.786;2023-09-19T00:01:39;14.18;;;1.48;;
53261;SDS011;39658;51.090;-1.786;2023-09-19T00:04:07;6.40;;;1.48;;
53261;SDS011;39658;51.090;-1.786;2023-09-19T00:06:35;6.82;;;1.58;;
53261;SDS011;39658;51.090;-1.786;2023-09-19T00:09:02;7.85;;;1.27;;
53261;SDS011;39658;51.090;-1.786;2023-09-19T00:11:29;9.57;;;1.73;;
53261;SDS011;39658;51.090;-1.786;2023-09-19T00:13:56;8.77;;;1.95;;
53261;SDS011;39658;51.090;-1.786;2023-09-19T00:16:24;13.65;;;1.60;;
53261;SDS011;39658;51.090;-1.786;2023-09-19T00:18:52;7.93;;;0.98;;
53261;SDS011;39658;51.090;-1.786;2023-09-19T00:21:20;12.57;;;1.58;;
53261;SDS011;39658;51.090;-1.786;2023-09-19T00:23:47;6.88;;;1.83;;
53261;SDS011;39658;51.090;-1.786;2023-09-19T00:26:14;8.70;;;1.20;;
53261;SDS011;39658;51.090;-1.786;2023-09-19T00:28:43;4.25;;;0.70;;
53261;SDS011;39658;51.090;-1.786;2023-09-19T00:31:10;10.27;;;2.03;;
53261;SDS011;39658;51.090;-1.786;2023-09-19T00:33:36;13.38;;;1.90;;
53261;SDS011;39658;51.090;-1.786;2023-09-19T00:36:03;11.15;;;1.70;;
53261;SDS011;39658;51.090;-1.786;2023-09-19T00:38:32;9.43;;;1.33;;
53261;SDS011;39658;51.090;-1.786;2023-09-19T00:40:59;5.13;;;1.33;;
53261;SDS011;39658;51.090;-1.786;2023-09-19T00:43:25;12.93;;;2.03;;
53261;SDS011;39658;51.090;-1.786;2023-09-19T00:45:53;14.80;;;1.83;;
53261;SDS011;39658;51.090;-1.786;2023-09-19T00:48:21;15.18;;;1.45;;
53261;SDS011;39658;51.090;-1.786;2023-09-19T00:50:49;12.02;;;1.40;;
53261;SDS011;39658;51.090;-1.786;2023-09-19T00:53:18;15.45;;;1.85;;
53261;SDS011;39658;51.090;-1.786;2023-09-19T00:55:49;7.03;;;1.35;;
53261;SDS011;39658;51.090;-1.786;2023-09-19T00:58:17;6.78;;;1.27;;
53261;SDS011;39658;51.090;-1.786;2023-09-19T01:00:45;9.32;;;1.13;;
53261;SDS011;39658;51.090;-1.786;2023-09-19T01:03:13;10.18;;;1.67;;
53261;SDS011;39658;51.090;-1.786;2023-09-19T01:05:41;5.35;;;1.17;;
53261;SDS011;39658;51.090;-1.786;2023-09-19T01:08:08;7.93;;;1.13;;
53261;SDS011;39658;51.090;-1.786;2023-09-19T01:10:36;5.03;;;1.00;;
53261;SDS011;39658;51.090;-1.786;2023-09-19T01:13:16;7.57;;;1.05;;
53261;SDS011;39658;51.090;-1.786;2023-09-19T01:15:51;5.85;;;1.08;;
53261;SDS011;39658;51.090;-1.786;2023-09-19T01:18:27;3.25;;;0.85;;
53261;SDS011;39658;51.090;-1.786;2023-09-19T01:21:03;5.82;;;1.23;;
53261;SDS011;39658;51.090;-1.786;2023-09-19T01:23:40;7.35;;;1.90;;
53261;SDS011;39658;51.090;-1.786;2023-09-19T01:26:54;10.07;;;1.75;;
53261;SDS011;39658;51.090;-1.786;2023-09-19T01:29:36;10.63;;;1.55;;
53261;SDS011;39658;51.090;-1.786;2023-09-19T01:32:08;8.02;;;1.15;;
53261;SDS011;39658;51.090;-1.786;2023-09-19T01:34:45;6.57;;;1.35;;
53261;SDS011;39658;51.090;-1.786;2023-09-19T01:37:16;8.85;;;1.85;;
53261;SDS011;39658;51.090;-1.786;2023-09-19T01:39:45;8.57;;;1.30;;
53261;SDS011;39658;51.090;-1.786;2023-09-19T01:42:18;14.07;;;1.77;;
53261;SDS011;39658;51.090;-1.786;2023-09-19T01:44:59;13.05;;;1.17;;
53261;SDS011;39658;51.090;-1.786;2023-09-19T01:47:35;6.13;;;1.35;;
53261;SDS011;39658;51.090;-1.786;2023-09-19T01:50:11;7.28;;;1.20;;
53261;SDS011;39658;51.090;-1.786;2023-09-19T01:52:46;7.00;;;0.77;;
53261;SDS011;39658;51.090;-1.786;2023-09-19T01:55:19;3.10;;;0.75;;
53261;SDS011;39658;51.090;-1.786;2023-09-19T01:57:48;9.35;;;1.20;;
53261;SDS011;39658;51.090;-1.786;2023-09-19T02:00:20;7.63;;;1.77;;
53261;SDS011;39658;51.090;-1.786;2023-09-19T02:02:51;9.50;;;1.30;;
53261;SDS011;39658;51.090;-1.786;2023-09-19T02:05:24;5.45;;;1.20;;
53261;SDS011;39658;51.090;-1.786;2023-09-19T02:07:52;8.30;;;1.13;;
53261;SDS011;39658;51.090;-1.786;2023-09-19T02:10:20;6.35;;;0.90;;
53261;SDS011;39658;51.090;-1.786;2023-09-19T02:12:47;9.02;;;1.00;;
53261;SDS011;39658;51.090;-1.786;2023-09-19T02:15:14;6.65;;;0.88;;
53261;SDS011;39658;51.090;-1.786;2023-09-19T02:17:42;6.00;;;1.10;;
53261;SDS011;39658;51.090;-1.786;2023-09-19T02:20:11;5.90;;;1.00;;
53261;SDS011;39658;51.090;-1.786;2023-09-19T02:22:40;7.45;;;1.48;;
53261;SDS011;39658;51.090;-1.786;2023-09-19T02:25:08;8.55;;;1.40;;
53261;SDS011;39658;51.090;-1.786;2023-09-19T02:27:35;6.35;;;1.25;;
53261;SDS011;39658;51.090;-1.786;2023-09-19T02:30:02;12.18;;;1.73;;
53261;SDS011;39658;51.090;-1.786;2023-09-19T02:32:31;9.90;;;1.80;;
53261;SDS011;39658;51.090;-1.786;2023-09-19T02:35:01;8.15;;;1.40;;
53261;SDS011;39658;51.090;-1.786;2023-09-19T02:37:31;13.65;;;1.65;;
53261;SDS011;39658;51.090;-1.786;2023-09-19T02:40:00;6.85;;;0.93;;
53261;SDS011;39658;51.090;-1.786;2023-09-19T02:42:27;8.52;;;1.58;;
53261;SDS011;39658;51.090;-1.786;2023-09-19T02:44:55;7.90;;;0.80;;
53261;SDS011;39658;51.090;-1.786;2023-09-19T02:47:22;7.80;;;1.20;;
53261;SDS011;39658;51.090;-1.786;2023-09-19T02:49:49;6.07;;;1.10;;
53261;SDS011;39658;51.090;-1.786;2023-09-19T02:52:16;7.35;;;1.42;;
53261;SDS011;39658;51.090;-1.786;2023-09-19T02:54:44;5.78;;;1.38;;
53261;SDS011;39658;51.090;-1.786;2023-09-19T02:57:11;4.63;;;0.98;;
53261;SDS011;39658;51.090;-1.786;2023-09-19T02:59:41;5.40;;;0.85;;
53261;SDS011;39658;51.090;-1.786;2023-09-19T03:02:09;12.30;;;1.40;;
53261;SDS011;39658;51.090;-1.786;2023-09-19T03:04:36;10.63;;;2.00;;
53261;SDS011;39658;51.090;-1.786;2023-09-19T03:07:03;17.13;;;1.48;;
53261;SDS011;39658;51.090;-1.786;2023-09-19T03:09:31;14.45;;;1.30;;
53261;SDS011;39658;51.090;-1.786;2023-09-19T03:11:59;7.47;;;0.80;;
53261;SDS011;39658;51.090;-1.786;2023-09-19T03:14:26;4.82;;;1.08;;
53261;SDS011;39658;51.090;-1.786;2023-09-19T03:16:55;10.82;;;1.00;;
53261;SDS011;39658;51.090;-1.786;2023-09-19T03:19:22;8.00;;;1.05;;
53261;SDS011;39658;51.090;-1.786;2023-09-19T03:21:48;5.22;;;1.05;;
53261;SDS011;39658;51.090;-1.786;2023-09-19T03:24:15;7.25;;;1.00;;
53261;SDS011;39658;51.090;-1.786;2023-09-19T03:26:42;2.72;;;0.73;;
53261;SDS011;39658;51.090;-1.786;2023-09-19T03:29:11;5.60;;;0.75;;
53261;SDS011;39658;51.090;-1.786;2023-09-19T03:31:39;2.83;;;0.98;;
53261;SDS011;39658;51.090;-1.786;2023-09-19T03:34:06;11.43;;;1.15;;
53261;SDS011;39658;51.090;-1.786;2023-09-19T03:36:32;5.03;;;1.00;;
53261;SDS011;39658;51.090;-1.786;2023-09-19T03:38:59;6.13;;;0.98;;
53261;SDS011;39658;51.090;-1.786;2023-09-19T03:41:26;8.85;;;1.30;;
53261;SDS011;39658;51.090;-1.786;2023-09-19T03:43:53;7.28;;;0.93;;
53261;SDS011;39658;51.090;-1.786;2023-09-19T03:46:21;6.05;;;1.42;;
53261;SDS011;39658;51.090;-1.786;2023-09-19T03:48:48;8.18;;;1.20;;
53261;SDS011;39658;51.090;-1.786;2023-09-19T03:51:15;15.00;;;1.08;;
53261;SDS011;39658;51.090;-1.786;2023-09-19T03:53:42;6.70;;;0.88;;
53261;SDS011;39658;51.090;-1.786;2023-09-19T03:56:07;9.82;;;1.90;;
53261;SDS011;39658;51.090;-1.786;2023-09-19T03:58:35;7.65;;;0.95;;
53261;SDS011;39658;51.090;-1.786;2023-09-19T04:01:04;9.02;;;1.13;;
53261;SDS011;39658;51.090;-1.786;2023-09-19T04:03:33;10.30;;;1.30;;
53261;SDS011;39658;51.090;-1.786;2023-09-19T04:06:11;11.05;;;1.15;;
53261;SDS011;39658;51.090;-1.786;2023-09-19T04:08:38;11.13;;;1.52;;
53261;SDS011;39658;51.090;-1.786;2023-09-19T04:11:04;4.78;;;0.95;;
53261;SDS011;39658;51.090;-1.786;2023-09-19T04:13:31;11.40;;;1.35;;
53261;SDS011;39658;51.090;-1.786;2023-09-19T04:15:58;8.32;;;1.05;;
53261;SDS011;39658;51.090;-1.786;2023-09-19T04:18:25;2.53;;;0.98;;
53261;SDS011;39658;51.090;-1.786;2023-09-19T04:20:53;6.25;;;1.27;;
53261;SDS011;39658;51.090;-1.786;2023-09-19T04:23:21;10.82;;;1.15;;
53261;SDS011;39658;51.090;-1.786;2023-09-19T04:25:47;6.82;;;1.00;;
53261;SDS011;39658;51.090;-1.786;2023-09-19T04:28:15;8.05;;;1.08;;
53261;SDS011;39658;51.090;-1.786;2023-09-19T04:30:42;6.85;;;1.48;;
53261;SDS011;39658;51.090;-1.786;2023-09-19T04:33:09;6.88;;;0.82;;
53261;SDS011;39658;51.090;-1.786;2023-09-19T04:35:36;7.50;;;0.80;;
53261;SDS011;39658;51.090;-1.786;2023-09-19T04:38:05;6.90;;;1.00;;
53261;SDS011;39658;51.090;-1.786;2023-09-19T04:40:32;5.47;;;0.88;;
53261;SDS011;39658;51.090;-1.786;2023-09-19T04:42:59;5.53;;;1.00;;
53261;SDS011;39658;51.090;-1.786;2023-09-19T04:45:27;5.43;;;0.75;;
53261;SDS011;39658;51.090;-1.786;2023-09-19T04:47:54;9.27;;;1.30;;
53261;SDS011;39658;51.090;-1.786;2023-09-19T04:50:21;8.10;;;1.08;;
53261;SDS011;39658;51.090;-1.786;2023-09-19T04:52:49;4.05;;;0.55;;
53261;SDS011;39658;51.090;-1.786;2023-09-19T04:55:18;8.45;;;1.20;;
53261;SDS011;39658;51.090;-1.786;2023-09-19T04:57:45;4.80;;;1.00;;
53261;SDS011;39658;51.090;-1.786;2023-09-19T05:00:13;7.88;;;1.00;;
53261;SDS011;39658;51.090;-1.786;2023-09-19T05:02:42;4.32;;;0.90;;
53261;SDS011;39658;51.090;-1.786;2023-09-19T05:05:09;16.80;;;1.40;;
53261;SDS011;39658;51.090;-1.786;2023-09-19T05:07:37;5.55;;;0.73;;
53261;SDS011;39658;51.090;-1.786;2023-09-19T05:10:05;7.57;;;1.15;;
53261;SDS011;39658;51.090;-1.786;2023-09-19T05:12:34;11.98;;;1.00;;
53261;SDS011;39658;51.090;-1.786;2023-09-19T05:15:01;7.57;;;1.25;;
53261;SDS011;39658;51.090;-1.786;2023-09-19T05:17:29;4.95;;;0.85;;
53261;SDS011;39658;51.090;-1.786;2023-09-19T05:19:56;5.55;;;0.98;;
53261;SDS011;39658;51.090;-1.786;2023-09-19T05:22:23;6.30;;;0.88;;
53261;SDS011;39658;51.090;-1.786;2023-09-19T05:24:50;3.38;;;0.70;;
53261;SDS011;39658;51.090;-1.786;2023-09-19T05:27:18;11.77;;;0.95;;
53261;SDS011;39658;51.090;-1.786;2023-09-19T05:29:47;4.22;;;0.88;;
53261;SDS011;39658;51.090;-1.786;2023-09-19T05:32:15;6.35;;;1.17;;
53261;SDS011;39658;51.090;-1.786;2023-09-19T05:34:44;6.50;;;1.10;;
53261;SDS011;39658;51.090;-1.786;2023-09-19T05:37:12;6.00;;;1.15;;
53261;SDS011;39658;51.090;-1.786;2023-09-19T05:39:41;9.30;;;1.00;;
53261;SDS011;39658;51.090;-1.786;2023-09-19T05:42:08;5.57;;;0.98;;
53261;SDS011;39658;51.090;-1.786;2023-09-19T05:44:34;5.85;;;1.45;;
53261;SDS011;39658;51.090;-1.786;2023-09-19T05:47:03;3.35;;;1.10;;
53261;SDS011;39658;51.090;-1.786;2023-09-19T05:49:30;5.47;;;1.02;;
53261;SDS011;39658;51.090;-1.786;2023-09-19T05:51:56;6.20;;;1.13;;
53261;SDS011;39658;51.090;-1.786;2023-09-19T05:54:24;6.05;;;1.30;;
53261;SDS011;39658;51.090;-1.786;2023-09-19T05:56:51;7.07;;;1.27;;
53261;SDS011;39658;51.090;-1.786;2023-09-19T05:59:18;5.88;;;1.15;;
53261;SDS011;39658;51.090;-1.786;2023-09-19T06:01:45;10.35;;;1.52;;
53261;SDS011;39658;51.090;-1.786;2023-09-19T06:04:13;4.63;;;0.93;;
53261;SDS011;39658;51.090;-1.786;2023-09-19T06:06:40;4.70;;;0.88;;
53261;SDS011;39658;51.090;-1.786;2023-09-19T06:09:07;7.80;;;0.75;;
53261;SDS011;39658;51.090;-1.786;2023-09-19T06:11:34;4.45;;;1.00;;
53261;SDS011;39658;51.090;-1.786;2023-09-19T06:14:01;4.50;;;0.82;;
53261;SDS011;39658;51.090;-1.786;2023-09-19T06:16:28;10.82;;;1.17;;
53261;SDS011;39658;51.090;-1.786;2023-09-19T06:18:57;14.25;;;1.30;;
53261;SDS011;39658;51.090;-1.786;2023-09-19T06:21:26;14.13;;;1.90;;
53261;SDS011;39658;51.090;-1.786;2023-09-19T06:23:53;5.70;;;1.65;;
53261;SDS011;39658;51.090;-1.786;2023-09-19T06:26:20;9.07;;;1.60;;
53261;SDS011;39658;51.090;-1.786;2023-09-19T06:28:47;8.88;;;1.70;;
53261;SDS011;39658;51.090;-1.786;2023-09-19T06:31:14;4.78;;;1.60;;
53261;SDS011;39658;51.090;-1.786;2023-09-19T06:33:40;8.65;;;1.55;;
53261;SDS011;39658;51.090;-1.786;2023-09-19T06:36:08;6.13;;;1.42;;
53261;SDS011;39658;51.090;-1.786;2023-09-19T06:38:36;8.52;;;1.70;;
53261;SDS011;39658;51.090;-1.786;2023-09-19T06:41:04;10.70;;;1.58;;
53261;SDS011;39658;51.090;-1.786;2023-09-19T06:43:32;10.90;;;2.70;;
53261;SDS011;39658;51.090;-1.786;2023-09-19T06:45:59;13.88;;;2.45;;
53261;SDS011;39658;51.090;-1.786;2023-09-19T06:48:26;7.38;;;1.77;;
53261;SDS011;39658;51.090;-1.786;2023-09-19T06:50:54;24.65;;;2.22;;
53261;SDS011;39658;51.090;-1.786;2023-09-19T06:53:21;6.85;;;1.33;;
53261;SDS011;39658;51.090;-1.786;2023-09-19T06:55:50;19.80;;;2.58;;
53261;SDS011;39658;51.090;-1.786;2023-09-19T06:58:17;11.57;;;1.45;;
53261;SDS011;39658;51.090;-1.786;2023-09-19T07:00:44;12.15;;;2.42;;
53261;SDS011;39658;51.090;-1.786;2023-09-19T07:03:12;13.10;;;1.42;;
53261;SDS011;39658;51.090;-1.786;2023-09-19T07:05:41;11.18;;;1.45;;
53261;SDS011;39658;51.090;-1.786;2023-09-19T07:08:09;7.28;;;1.55;;
53261;SDS011;39658;51.090;-1.786;2023-09-19T07:10:37;9.82;;;1.95;;
53261;SDS011;39658;51.090;-1.786;2023-09-19T07:13:07;14.75;;;1.85;;
53261;SDS011;39658;51.090;-1.786;2023-09-19T07:15:36;3.78;;;1.23;;
53261;SDS011;39658;51.090;-1.786;2023-09-19T07:18:06;7.20;;;0.98;;
53261;SDS011;39658;51.090;-1.786;2023-09-19T07:20:36;10.07;;;2.38;;
53261;SDS011;39658;51.090;-1.786;2023-09-19T07:23:03;14.02;;;1.92;;
53261;SDS011;39658;51.090;-1.786;2023-09-19T07:25:31;7.22;;;1.98;;
53261;SDS011;39658;51.090;-1.786;2023-09-19T07:27:58;7.90;;;2.28;;
53261;SDS011;39658;51.090;-1.786;2023-09-19T07:30:27;18.15;;;2.35;;
53261;SDS011;39658;51.090;-1.786;2023-09-19T07:32:54;15.88;;;2.75;;
53261;SDS011;39658;51.090;-1.786;2023-09-19T07:35:21;15.50;;;2.85;;
53261;SDS011;39658;51.090;-1.786;2023-09-19T07:37:47;14.68;;;2.78;;
53261;SDS011;39658;51.090;-1.786;2023-09-19T07:40:16;12.18;;;2.63;;
53261;SDS011;39658;51.090;-1.786;2023-09-19T07:42:43;7.35;;;1.23;;
53261;SDS011;39658;51.090;-1.786;2023-09-19T07:45:12;6.32;;;2.15;;
53261;SDS011;39658;51.090;-1.786;2023-09-19T07:47:44;9.93;;;2.17;;
53261;SDS011;39658;51.090;-1.786;2023-09-19T07:50:12;14.63;;;2.80;;
53261;SDS011;39658;51.090;-1.786;2023-09-19T07:52:38;10.88;;;2.50;;
53261;SDS011;39658;51.090;-1.786;2023-09-19T07:55:05;10.18;;;2.53;;
53261;SDS011;39658;51.090;-1.786;2023-09-19T07:57:35;10.48;;;2.20;;
53261;SDS011;39658;51.090;-1.786;2023-09-19T08:00:02;16.42;;;2.40;;
53261;SDS011;39658;51.090;-1.786;2023-09-19T08:02:33;13.65;;;2.28;;
53261;SDS011;39658;51.090;-1.786;2023-09-19T08:05:04;14.35;;;2.70;;
53261;SDS011;39658;51.090;-1.786;2023-09-19T08:07:35;13.43;;;2.33;;
53261;SDS011;39658;51.090;-1.786;2023-09-19T08:10:02;15.75;;;3.00;;
53261;SDS011;39658;51.090;-1.786;2023-09-19T08:12:29;11.18;;;2.42;;
53261;SDS011;39658;51.090;-1.786;2023-09-19T08:14:57;7.05;;;1.65;;
53261;SDS011;39658;51.090;-1.786;2023-09-19T08:17:24;16.95;;;3.35;;
53261;SDS011;39658;51.090;-1.786;2023-09-19T08:19:51;14.10;;;2.05;;
53261;SDS011;39658;51.090;-1.786;2023-09-19T08:22:19;15.52;;;3.05;;
53261;SDS011;39658;51.090;-1.786;2023-09-19T08:24:48;12.15;;;2.50;;
53261;SDS011;39658;51.090;-1.786;2023-09-19T08:27:15;12.60;;;2.38;;
53261;SDS011;39658;51.090;-1.786;2023-09-19T08:29:43;13.52;;;2.83;;
53261;SDS011;39658;51.090;-1.786;2023-09-19T08:32:10;15.48;;;2.45;;
53261;SDS011;39658;51.090;-1.786;2023-09-19T08:34:37;15.45;;;3.13;;
53261;SDS011;39658;51.090;-1.786;2023-09-19T08:37:04;12.27;;;2.72;;
53261;SDS011;39658;51.090;-1.786;2023-09-19T08:39:32;18.52;;;3.75;;
53261;SDS011;39658;51.090;-1.786;2023-09-19T08:42:00;14.90;;;3.88;;
53261;SDS011;39658;51.090;-1.786;2023-09-19T08:44:28;15.07;;;3.22;;
53261;SDS011;39658;51.090;-1.786;2023-09-19T08:46:56;26.25;;;3.75;;
53261;SDS011;39658;51.090;-1.786;2023-09-19T08:49:33;13.27;;;2.83;;
53261;SDS011;39658;51.090;-1.786;2023-09-19T08:52:10;12.40;;;3.03;;
53261;SDS011;39658;51.090;-1.786;2023-09-19T08:54:47;17.80;;;3.25;;
53261;SDS011;39658;51.090;-1.786;2023-09-19T08:57:17;12.77;;;3.50;;
53261;SDS011;39658;51.090;-1.786;2023-09-19T08:59:47;13.07;;;2.80;;
53261;SDS011;39658;51.090;-1.786;2023-09-19T09:02:15;9.98;;;2.85;;
53261;SDS011;39658;51.090;-1.786;2023-09-19T09:04:45;22.52;;;3.28;;
53261;SDS011;39658;51.090;-1.786;2023-09-19T09:07:12;16.30;;;3.40;;
53261;SDS011;39658;51.090;-1.786;2023-09-19T09:09:40;19.70;;;3.35;;
53261;SDS011;39658;51.090;-1.786;2023-09-19T09:12:09;12.82;;;2.60;;
53261;SDS011;39658;51.090;-1.786;2023-09-19T09:14:38;17.02;;;3.08;;
53261;SDS011;39658;51.090;-1.786;2023-09-19T09:17:06;33.22;;;3.47;;
53261;SDS011;39658;51.090;-1.786;2023-09-19T09:19:34;13.88;;;2.65;;
53261;SDS011;39658;51.090;-1.786;2023-09-19T09:22:07;22.48;;;3.53;;
53261;SDS011;39658;51.090;-1.786;2023-09-19T09:24:35;19.77;;;3.70;;
53261;SDS011;39658;51.090;-1.786;2023-09-19T09:27:04;16.38;;;3.13;;
53261;SDS011;39658;51.090;-1.786;2023-09-19T09:29:41;14.35;;;2.58;;
53261;SDS011;39658;51.090;-1.786;2023-09-19T09:32:22;11.77;;;2.30;;
53261;SDS011;39658;51.090;-1.786;2023-09-19T09:34:50;14.43;;;3.17;;
53261;SDS011;39658;51.090;-1.786;2023-09-19T09:37:18;11.27;;;2.92;;
53261;SDS011;39658;51.090;-1.786;2023-09-19T09:39:50;16.05;;;3.15;;
53261;SDS011;39658;51.090;-1.786;2023-09-19T09:42:29;12.88;;;2.22;;
53261;SDS011;39658;51.090;-1.786;2023-09-19T09:45:16;10.32;;;2.42;;
53261;SDS011;39658;51.090;-1.786;2023-09-19T09:47:44;10.40;;;2.58;;
53261;SDS011;39658;51.090;-1.786;2023-09-19T09:50:23;10.60;;;2.22;;
53261;SDS011;39658;51.090;-1.786;2023-09-19T09:53:22;14.57;;;3.25;;
53261;SDS011;39658;51.090;-1.786;2023-09-19T09:56:02;20.90;;;2.80;;
53261;SDS011;39658;51.090;-1.786;2023-09-19T09:58:32;11.43;;;1.90;;
53261;SDS011;39658;51.090;-1.786;2023-09-19T10:01:01;9.52;;;2.33;;
53261;SDS011;39658;51.090;-1.786;2023-09-19T10:03:34;11.85;;;2.45;;
53261;SDS011;39658;51.090;-1.786;2023-09-19T10:06:05;12.57;;;2.53;;
53261;SDS011;39658;51.090;-1.786;2023-09-19T10:09:02;11.05;;;2.13;;
53261;SDS011;39658;51.090;-1.786;2023-09-19T10:11:38;12.80;;;2.60;;
53261;SDS011;39658;51.090;-1.786;2023-09-19T10:14:08;10.02;;;2.63;;
53261;SDS011;39658;51.090;-1.786;2023-09-19T10:16:40;16.85;;;2.65;;
53261;SDS011;39658;51.090;-1.786;2023-09-19T10:19:09;10.82;;;2.35;;
53261;SDS011;39658;51.090;-1.786;2023-09-19T10:21:41;13.45;;;2.50;;
53261;SDS011;39658;51.090;-1.786;2023-09-19T10:24:10;11.77;;;2.25;;
53261;SDS011;39658;51.090;-1.786;2023-09-19T10:26:38;8.50;;;2.75;;
53261;SDS011;39658;51.090;-1.786;2023-09-19T10:31:36;9.40;;;1.77;;
53261;SDS011;39658;51.090;-1.786;2023-09-19T10:34:07;16.52;;;2.08;;
53261;SDS011;39658;51.090;-1.786;2023-09-19T10:36:35;15.07;;;2.60;;
53261;SDS011;39658;51.090;-1.786;2023-09-19T10:39:04;6.60;;;1.50;;
53261;SDS011;39658;51.090;-1.786;2023-09-19T10:41:34;6.78;;;1.83;;
53261;SDS011;39658;51.090;-1.786;2023-09-19T10:44:03;11.60;;;1.70;;
53261;SDS011;39658;51.090;-1.786;2023-09-19T10:46:31;8.02;;;1.92;;
53261;SDS011;39658;51.090;-1.786;2023-09-19T10:48:59;11.45;;;2.30;;
53261;SDS011;39658;51.090;-1.786;2023-09-19T10:51:28;8.48;;;2.83;;
53261;SDS011;39658;51.090;-1.786;2023-09-19T10:53:59;7.13;;;1.35;;
53261;SDS011;39658;51.090;-1.786;2023-09-19T10:56:33;7.43;;;2.10;;
53261;SDS011;39658;51.090;-1.786;2023-09-19T10:59:05;11.38;;;2.00;;
53261;SDS011;39658;51.090;-1.786;2023-09-19T11:01:44;7.50;;;1.60;;
53261;SDS011;39658;51.090;-1.786;2023-09-19T11:04:22;9.88;;;2.22;;
53261;SDS011;39658;51.090;-1.786;2023-09-19T11:07:04;18.40;;;2.40;;
53261;SDS011;39658;51.090;-1.786;2023-09-19T11:09:43;6.38;;;1.63;;
53261;SDS011;39658;51.090;-1.786;2023-09-19T11:12:12;9.02;;;2.13;;
53261;SDS011;39658;51.090;-1.786;2023-09-19T11:15:03;13.43;;;2.20;;
53261;SDS011;39658;51.090;-1.786;2023-09-19T11:17:33;10.38;;;2.40;;
53261;SDS011;39658;51.090;-1.786;2023-09-19T11:20:19;12.88;;;2.90;;
53261;SDS011;39658;51.090;-1.786;2023-09-19T11:23:23;19.80;;;2.22;;
53261;SDS011;39658;51.090;-1.786;2023-09-19T11:25:53;12.68;;;2.42;;
53261;SDS011;39658;51.090;-1.786;2023-09-19T11:28:30;15.75;;;2.50;;
53261;SDS011;39658;51.090;-1.786;2023-09-19T11:30:56;8.95;;;2.50;;
53261;SDS011;39658;51.090;-1.786;2023-09-19T11:33:24;11.57;;;1.83;;
53261;SDS011;39658;51.090;-1.786;2023-09-19T11:36:03;12.25;;;2.65;;
53261;SDS011;39658;51.090;-1.786;2023-09-19T11:41:36;5.57;;;1.55;;
53261;SDS011;39658;51.090;-1.786;2023-09-19T11:47:04;8.02;;;1.77;;
53261;SDS011;39658;51.090;-1.786;2023-09-19T11:49:32;11.73;;;2.30;;
53261;SDS011;39658;51.090;-1.786;2023-09-19T11:52:00;6.07;;;1.83;;
53261;SDS011;39658;51.090;-1.786;2023-09-19T11:54:32;10.75;;;2.35;;
53261;SDS011;39658;51.090;-1.786;2023-09-19T11:56:59;5.65;;;1.73;;
53261;SDS011;39658;51.090;-1.786;2023-09-19T11:59:28;14.02;;;2.20;;
53261;SDS011;39658;51.090;-1.786;2023-09-19T12:01:56;8.18;;;1.98;;
53261;SDS011;39658;51.090;-1.786;2023-09-19T12:04:36;7.88;;;1.90;;
53261;SDS011;39658;51.090;-1.786;2023-09-19T12:07:04;8.13;;;1.83;;
53261;SDS011;39658;51.090;-1.786;2023-09-19T12:09:38;10.63;;;2.40;;
53261;SDS011;39658;51.090;-1.786;2023-09-19T12:12:09;13.45;;;2.75;;
53261;SDS011;39658;51.090;-1.786;2023-09-19T12:14:37;6.88;;;1.88;;
53261;SDS011;39658;51.090;-1.786;2023-09-19T12:17:07;11.60;;;2.00;;
53261;SDS011;39658;51.090;-1.786;2023-09-19T12:19:34;9.48;;;2.28;;
53261;SDS011;39658;51.090;-1.786;2023-09-19T12:22:01;9.38;;;2.08;;
53261;SDS011;39658;51.090;-1.786;2023-09-19T12:24:30;9.18;;;1.77;;
53261;SDS011;39658;51.090;-1.786;2023-09-19T12:27:03;9.38;;;1.50;;
53261;SDS011;39658;51.090;-1.786;2023-09-19T12:29:31;9.27;;;2.08;;
53261;SDS011;39658;51.090;-1.786;2023-09-19T12:34:34;8.63;;;1.75;;
53261;SDS011;39658;51.090;-1.786;2023-09-19T12:37:07;10.45;;;1.70;;
53261;SDS011;39658;51.090;-1.786;2023-09-19T12:39:41;8.68;;;1.50;;
53261;SDS011;39658;51.090;-1.786;2023-09-19T12:42:15;12.40;;;1.90;;
53261;SDS011;39658;51.090;-1.786;2023-09-19T12:44:44;4.43;;;1.60;;
53261;SDS011;39658;51.090;-1.786;2023-09-19T12:47:13;13.63;;;2.05;;
53261;SDS011;39658;51.090;-1.786;2023-09-19T12:52:42;7.85;;;2.17;;
53261;SDS011;39658;51.090;-1.786;2023-09-19T12:55:22;11.07;;;2.05;;
53261;SDS011;39658;51.090;-1.786;2023-09-19T12:58:11;6.15;;;1.83;;
53261;SDS011;39658;51.090;-1.786;2023-09-19T13:00:40;13.65;;;1.95;;
53261;SDS011;39658;51.090;-1.786;2023-09-19T13:03:11;16.38;;;2.00;;
53261;SDS011;39658;51.090;-1.786;2023-09-19T13:05:48;9.00;;;1.80;;
53261;SDS011;39658;51.090;-1.786;2023-09-19T13:08:19;10.27;;;1.90;;
53261;SDS011;39658;51.090;-1.786;2023-09-19T13:11:05;8.15;;;1.77;;
53261;SDS011;39658;51.090;-1.786;2023-09-19T13:13:37;13.27;;;2.55;;
53261;SDS011;39658;51.090;-1.786;2023-09-19T13:16:05;12.10;;;2.22;;
53261;SDS011;39658;51.090;-1.786;2023-09-19T13:18:44;18.65;;;2.55;;
53261;SDS011;39658;51.090;-1.786;2023-09-19T13:21:13;14.80;;;2.30;;
53261;SDS011;39658;51.090;-1.786;2023-09-19T13:23:51;6.63;;;1.60;;
53261;SDS011;39658;51.090;-1.786;2023-09-19T13:26:19;9.32;;;1.63;;
53261;SDS011;39658;51.090;-1.786;2023-09-19T13:28:49;7.35;;;2.10;;
53261;SDS011;39658;51.090;-1.786;2023-09-19T13:31:16;10.23;;;2.10;;
53261;SDS011;39658;51.090;-1.786;2023-09-19T13:33:43;6.43;;;1.80;;
53261;SDS011;39658;51.090;-1.786;2023-09-19T13:36:10;7.45;;;1.92;;
53261;SDS011;39658;51.090;-1.786;2023-09-19T13:38:38;6.82;;;1.75;;
53261;SDS011;39658;51.090;-1.786;2023-09-19T13:41:05;10.20;;;1.98;;
53261;SDS011;39658;51.090;-1.786;2023-09-19T13:43:32;5.57;;;1.63;;
53261;SDS011;39658;51.090;-1.786;2023-09-19T13:46:00;6.30;;;1.60;;
53261;SDS011;39658;51.090;-1.786;2023-09-19T13:48:27;7.10;;;1.60;;
53261;SDS011;39658;51.090;-1.786;2023-09-19T13:50:55;7.53;;;1.45;;
53261;SDS011;39658;51.090;-1.786;2023-09-19T13:53:22;13.25;;;2.40;;
53261;SDS011;39658;51.090;-1.786;2023-09-19T13:55:48;6.78;;;1.88;;
53261;SDS011;39658;51.090;-1.786;2023-09-19T13:58:16;15.05;;;2.67;;
53261;SDS011;39658;51.090;-1.786;2023-09-19T14:00:42;14.35;;;1.92;;
53261;SDS011;39658;51.090;-1.786;2023-09-19T14:03:11;7.80;;;2.03;;
53261;SDS011;39658;51.090;-1.786;2023-09-19T14:05:37;12.90;;;1.95;;
53261;SDS011;39658;51.090;-1.786;2023-09-19T14:08:04;12.18;;;2.33;;
53261;SDS011;39658;51.090;-1.786;2023-09-19T14:10:31;8.18;;;2.38;;
53261;SDS011;39658;51.090;-1.786;2023-09-19T14:12:59;10.75;;;1.55;;
53261;SDS011;39658;51.090;-1.786;2023-09-19T14:15:26;9.60;;;2.50;;
53261;SDS011;39658;51.090;-1.786;2023-09-19T14:17:56;8.65;;;1.45;;
53261;SDS011;39658;51.090;-1.786;2023-09-19T14:20:26;5.80;;;1.90;;
53261;SDS011;39658;51.090;-1.786;2023-09-19T14:22:54;9.23;;;1.55;;
53261;SDS011;39658;51.090;-1.786;2023-09-19T14:25:21;14.85;;;1.80;;
53261;SDS011;39658;51.090;-1.786;2023-09-19T14:27:48;6.78;;;1.52;;
53261;SDS011;39658;51.090;-1.786;2023-09-19T14:30:14;9.82;;;1.73;;
53261;SDS011;39658;51.090;-1.786;2023-09-19T14:32:41;12.85;;;2.58;;
53261;SDS011;39658;51.090;-1.786;2023-09-19T14:35:08;5.70;;;1.58;;
53261;SDS011;39658;51.090;-1.786;2023-09-19T14:37:37;8.57;;;1.85;;
53261;SDS011;39658;51.090;-1.786;2023-09-19T14:40:05;8.55;;;1.10;;
53261;SDS011;39658;51.090;-1.786;2023-09-19T14:42:34;10.93;;;1.90;;
53261;SDS011;39658;51.090;-1.786;2023-09-19T14:45:03;9.63;;;1.48;;
53261;SDS011;39658;51.090;-1.786;2023-09-19T14:47:32;8.02;;;2.28;;
53261;SDS011;39658;51.090;-1.786;2023-09-19T14:50:00;7.40;;;1.20;;
53261;SDS011;39658;51.090;-1.786;2023-09-19T14:52:31;11.93;;;2.35;;
53261;SDS011;39658;51.090;-1.786;2023-09-19T14:55:00;10.00;;;2.20;;
53261;SDS011;39658;51.090;-1.786;2023-09-19T14:57:27;5.10;;;1.35;;